Time;durP1;ratioP1;P1;durP2;ratioP2;P2;SDS_P1;SDS_P2;PMS_P1;PMS_P2;Temp;Humidity;BMP_temperature;BMP_pressure;BME280_temperature;BME280_humidity;BME280_pressure;Samples;Min_cycle;Max_cycle;Signal;HPM_P1;HPM_P2
2023/03/23 00:00:48;;;;;;;2.90;2.20;;;;;;;11.14;80.19;100266.13;6187923;28;20614;-73
2023/03/23 00:04:08;;;;;;;2.80;2.57;;;;;;;11.08;81.23;100272.97;6190921;28;20260;-72
2023/03/23 00:07:30;;;;;;;2.63;2.33;;;;;;;10.97;82.98;100260.28;6197825;28;20225;-73
2023/03/23 00:10:52;;;;;;;3.20;2.90;;;;;;;10.93;84.39;100254.53;6195368;28;20323;-73
2023/03/23 00:14:13;;;;;;;5.80;4.07;;;;;;;10.85;85.98;100252.00;6205101;28;20230;-72
2023/03/23 00:17:36;;;;;;;3.07;2.80;;;;;;;10.90;86.62;100259.34;6205462;28;20248;-73
2023/03/23 00:20:58;;;;;;;5.33;2.80;;;;;;;10.78;88.25;100252.94;6196104;28;20229;-72
2023/03/23 00:24:19;;;;;;;3.67;3.27;;;;;;;10.75;88.60;100255.94;6210981;28;20249;-72
2023/03/23 00:27:40;;;;;;;3.13;2.93;;;;;;;10.70;89.41;100260.94;6203693;28;20254;-72
2023/03/23 00:31:06;;;;;;;4.00;3.70;;;;;;;10.77;89.50;100244.19;6203741;28;20225;-72
2023/03/23 00:34:32;;;;;;;4.33;3.93;;;;;;;10.70;89.71;100242.47;6211641;28;20245;-72
2023/03/23 00:37:55;;;;;;;3.80;3.40;;;;;;;10.60;90.74;100245.41;6187623;28;20225;-73
2023/03/23 00:41:16;;;;;;;4.23;3.73;;;;;;;10.61;90.93;100223.28;6187958;28;20232;-73
2023/03/23 00:44:37;;;;;;;3.77;3.50;;;;;;;10.60;90.96;100217.19;6203002;28;20233;-72
2023/03/23 00:48:01;;;;;;;4.87;4.43;;;;;;;10.64;91.10;100214.97;6207829;28;20561;-73
2023/03/23 00:51:26;;;;;;;4.57;4.17;;;;;;;10.60;91.25;100211.91;6199412;28;20519;-72
2023/03/23 00:54:47;;;;;;;4.87;4.13;;;;;;;10.61;91.18;100167.88;6197215;28;20328;-71
2023/03/23 00:58:11;;;;;;;4.93;4.47;;;;;;;10.63;90.77;100174.56;6192196;28;20631;-72
2023/03/23 01:01:33;;;;;;;4.47;4.07;;;;;;;10.58;91.06;100179.59;6200220;28;20252;-72
2023/03/23 01:04:54;;;;;;;5.43;4.03;;;;;;;10.58;91.12;100179.59;6193907;28;20233;-72
2023/03/23 01:08:18;;;;;;;3.60;3.07;;;;;;;10.59;91.35;100164.59;6202775;28;20225;-72
2023/03/23 01:11:39;;;;;;;4.00;3.23;;;;;;;10.55;91.12;100163.31;6200966;28;20225;-72
2023/03/23 01:15:00;;;;;;;4.43;3.93;;;;;;;10.57;91.06;100159.50;6206394;28;20241;-72
2023/03/23 01:18:21;;;;;;;5.83;4.93;;;;;;;10.60;91.46;100151.22;6199208;28;20233;-72
2023/03/23 01:21:42;;;;;;;4.13;3.80;;;;;;;10.58;91.57;100136.56;6199480;28;20249;-72
2023/03/23 01:25:05;;;;;;;5.30;4.90;;;;;;;10.58;91.34;100137.38;6197463;28;20225;-72
2023/03/23 01:28:26;;;;;;;4.43;4.03;;;;;;;10.54;91.53;100148.47;6198792;28;20233;-73
2023/03/23 01:31:47;;;;;;;5.00;3.73;;;;;;;10.49;91.96;100146.41;6199838;28;20229;-73
2023/03/23 01:35:09;;;;;;;6.33;4.23;;;;;;;10.48;92.04;100136.03;6197285;28;20570;-73
2023/03/23 01:38:30;;;;;;;4.90;4.17;;;;;;;10.49;91.96;100145.56;6213083;28;20479;-72
2023/03/23 01:41:52;;;;;;;4.60;4.20;;;;;;;10.45;92.27;100150.41;6195468;28;20558;-72
2023/03/23 01:45:24;;;;;;;4.20;3.87;;;;;;;10.45;92.54;100128.47;6203605;28;20813;-72
2023/03/23 01:48:46;;;;;;;5.90;4.43;;;;;;;10.52;92.15;100132.03;6197686;28;20489;-72
2023/03/23 01:52:11;;;;;;;5.77;4.00;;;;;;;10.46;92.52;100130.13;6188667;28;20229;-71
2023/03/23 01:55:32;;;;;;;6.77;4.60;;;;;;;10.44;92.75;100121.56;6208354;28;20540;-72
2023/03/23 01:58:55;;;;;;;5.17;4.60;;;;;;;10.48;92.49;100113.09;6202391;28;20241;-72
2023/03/23 02:02:20;;;;;;;6.50;4.90;;;;;;;10.51;92.48;100110.09;6196055;28;20241;-72
2023/03/23 02:05:42;;;;;;;11.70;5.93;;;;;;;10.48;92.80;100099.91;6175538;28;20242;-72
2023/03/23 02:09:13;;;;;;;5.13;4.63;;;;;;;10.49;92.82;100104.19;6196045;28;20233;-72
2023/03/23 02:12:35;;;;;;;4.70;4.30;;;;;;;10.48;92.85;100101.72;6195957;28;20225;-72
2023/03/23 02:16:07;;;;;;;4.37;3.17;;;;;;;10.52;92.82;100111.72;6202251;28;20229;-72
2023/03/23 02:19:54;;;;;;;4.20;3.70;;;;;;;10.49;92.87;100104.19;6196014;28;20606;-73
2023/03/23 02:23:42;;;;;;;3.60;3.30;;;;;;;10.50;92.91;100102.34;6205372;28;20229;-73
2023/03/23 02:27:12;;;;;;;4.40;3.97;;;;;;;10.54;92.92;100091.25;6197137;28;20236;-72
2023/03/23 02:30:44;;;;;;;4.57;4.17;;;;;;;10.59;93.01;100101.25;6198243;28;20221;-72
2023/03/23 02:34:14;;;;;;;8.07;4.17;;;;;;;10.60;92.78;100095.78;6183784;28;20890;-72
2023/03/23 02:37:41;;;;;;;4.23;3.83;;;;;;;10.62;92.64;100091.13;6178310;28;20231;-72
2023/03/23 02:41:03;;;;;;;6.00;4.40;;;;;;;10.66;92.40;100085.47;6180878;28;20233;-72
2023/03/23 02:44:29;;;;;;;3.53;2.97;;;;;;;10.69;92.35;100082.47;6166853;28;20268;-71
2023/03/23 02:47:54;;;;;;;3.60;3.30;;;;;;;10.70;92.15;100076.19;6196507;28;20515;-72
2023/03/23 02:51:17;;;;;;;4.20;3.90;;;;;;;10.70;92.52;100084.09;6207354;28;20351;-72
2023/03/23 02:54:39;;;;;;;4.23;3.93;;;;;;;10.74;92.04;100067.69;6190854;28;20233;-72
2023/03/23 02:58:01;;;;;;;3.43;3.13;;;;;;;10.72;92.59;100066.25;6210516;28;20265;-74
2023/03/23 03:01:58;;;;;;;3.27;2.77;;;;;;;10.73;92.51;100073.97;6186314;28;20237;-73
2023/03/23 03:05:35;;;;;;;4.20;3.80;;;;;;;10.76;92.28;100075.44;6195300;28;20366;-73
2023/03/23 03:09:03;;;;;;;4.77;4.17;;;;;;;10.83;92.03;100061.31;6192994;28;20234;-71
2023/03/23 03:12:31;;;;;;;3.43;3.23;;;;;;;10.83;91.77;100065.75;6195353;28;20335;-73
2023/03/23 03:15:58;;;;;;;3.73;3.33;;;;;;;10.87;91.60;100051.16;6190869;28;20236;-72
2023/03/23 03:19:25;;;;;;;3.73;3.43;;;;;;;10.91;91.33;100041.84;6196448;28;22174;-73
2023/03/23 03:22:47;;;;;;;3.17;2.93;;;;;;;10.95;91.10;100032.53;6199742;28;20255;-71
2023/03/23 03:26:12;;;;;;;4.33;3.40;;;;;;;10.96;91.03;100036.81;6190002;28;20599;-72
2023/03/23 03:29:42;;;;;;;3.67;3.37;;;;;;;10.98;90.87;99995.19;6191632;28;20225;-72
2023/03/23 03:33:04;;;;;;;3.73;3.43;;;;;;;10.97;90.72;99998.84;6195454;28;20236;-72
2023/03/23 03:36:34;;;;;;;3.70;3.50;;;;;;;10.95;90.96;99999.03;6191317;28;20228;-73
2023/03/23 03:39:56;;;;;;;4.77;4.37;;;;;;;10.95;90.74;100009.59;6188361;28;20328;-73
2023/03/23 03:43:18;;;;;;;4.03;3.73;;;;;;;11.00;91.14;100000.28;6207901;28;20232;-73
2023/03/23 03:46:39;;;;;;;4.93;4.27;;;;;;;10.94;91.31;100007.97;6201252;28;20232;-74
2023/03/23 03:50:00;;;;;;;4.37;3.97;;;;;;;10.95;90.99;99990.31;6207713;28;20316;-73
2023/03/23 03:53:21;;;;;;;4.47;3.50;;;;;;;10.96;91.16;100010.41;6201738;28;20225;-73
2023/03/23 03:56:42;;;;;;;3.73;3.43;;;;;;;10.96;90.79;100008.59;6197663;28;20319;-73
2023/03/23 04:00:23;;;;;;;5.20;3.00;;;;;;;11.00;90.43;100014.31;6210796;28;20245;-73
2023/03/23 04:03:44;;;;;;;4.67;4.27;;;;;;;11.03;90.23;100005.19;6214689;28;20233;-74
2023/03/23 04:07:16;;;;;;;5.40;3.97;;;;;;;11.05;90.14;100011.91;6171329;28;20815;-73
2023/03/23 04:10:37;;;;;;;3.77;3.47;;;;;;;11.11;89.78;99999.75;6212054;28;20225;-72
2023/03/23 04:13:58;;;;;;;5.17;4.77;;;;;;;11.17;89.04;100013.00;6204180;28;20252;-73
2023/03/23 04:17:27;;;;;;;4.87;3.83;;;;;;;11.17;89.29;100004.28;6214912;28;20232;-73
2023/03/23 04:20:49;;;;;;;6.30;4.50;;;;;;;11.15;89.33;100030.88;6196520;28;20236;-72
2023/03/23 04:24:13;;;;;;;5.57;3.60;;;;;;;11.20;88.59;100010.00;6193660;28;20619;-72
2023/03/23 04:27:34;;;;;;;3.67;3.37;;;;;;;11.17;88.82;100022.75;6214238;28;20233;-72
2023/03/23 04:31:00;;;;;;;4.40;4.00;;;;;;;11.14;89.02;100017.84;6194981;28;20225;-73
2023/03/23 04:34:22;;;;;;;3.77;3.47;;;;;;;11.15;88.87;100025.59;6210711;28;20233;-72
2023/03/23 04:37:45;;;;;;;4.80;4.40;;;;;;;11.11;89.18;100021.69;6213088;28;20319;-74
2023/03/23 04:41:09;;;;;;;4.50;4.10;;;;;;;11.13;88.46;100027.59;6195960;28;20245;-73
2023/03/23 04:44:38;;;;;;;7.03;4.47;;;;;;;11.14;88.21;100017.84;6201449;28;20221;-73
2023/03/23 04:48:06;;;;;;;3.87;3.47;;;;;;;11.16;87.87;100014.03;6183358;28;20217;-73
2023/03/23 04:51:39;;;;;;;4.70;4.40;;;;;;;11.16;87.92;100010.56;6211658;28;20248;-73
2023/03/23 04:55:10;;;;;;;4.17;3.77;;;;;;;11.21;87.27;100006.34;6215917;28;20260;-74
2023/03/23 04:58:34;;;;;;;5.00;3.60;;;;;;;11.25;87.15;100006.78;6194139;28;20232;-74
2023/03/23 05:02:09;;;;;;;4.40;3.70;;;;;;;11.33;86.53;99996.03;6215038;28;20232;-75
2023/03/23 05:05:31;;;;;;;4.57;3.30;;;;;;;11.37;85.67;100005.22;6197262;28;20232;-74
2023/03/23 05:08:56;;;;;;;3.80;3.57;;;;;;;11.33;86.02;100001.31;6198949;28;20587;-73
2023/03/23 05:12:18;;;;;;;4.30;3.90;;;;;;;11.36;85.59;100002.75;6185601;28;20229;-74
2023/03/23 05:15:53;;;;;;;7.27;4.37;;;;;;;11.35;86.08;99994.03;6197093;28;20237;-74
2023/03/23 05:19:14;;;;;;;5.13;4.33;;;;;;;11.36;86.00;99993.00;6212641;28;20232;-76
2023/03/23 05:22:36;;;;;;;4.90;4.50;;;;;;;11.37;86.25;99991.19;6204649;28;20586;-73
2023/03/23 05:26:02;;;;;;;4.50;4.03;;;;;;;11.37;85.96;99989.34;6192557;28;20239;-74
2023/03/23 05:29:24;;;;;;;4.03;3.20;;;;;;;11.36;86.78;99990.38;6188712;28;20294;-74
2023/03/23 05:32:52;;;;;;;4.97;3.63;;;;;;;11.38;86.00;99992.81;6198220;28;20228;-73
2023/03/23 05:36:44;;;;;;;3.97;3.47;;;;;;;11.38;86.38;100000.75;6170293;28;20272;-73
2023/03/23 05:40:20;;;;;;;3.50;3.17;;;;;;;11.35;86.66;99999.31;6202290;28;20228;-74
2023/03/23 05:43:51;;;;;;;5.13;3.33;;;;;;;11.35;86.46;99998.50;6193990;28;20229;-73
2023/03/23 05:47:20;;;;;;;4.60;3.30;;;;;;;11.34;86.74;99992.38;6189752;28;20225;-74
2023/03/23 05:50:48;;;;;;;3.87;3.47;;;;;;;11.28;87.17;99987.91;6186064;28;20229;-73
2023/03/23 05:54:10;;;;;;;3.73;3.17;;;;;;;11.26;86.92;99993.38;6198895;28;20228;-72
2023/03/23 05:57:32;;;;;;;5.43;3.60;;;;;;;11.29;86.51;99973.69;6201756;28;20228;-74
2023/03/23 06:01:01;;;;;;;2.70;2.50;;;;;;;11.29;86.29;99973.69;6185943;28;20246;-74
2023/03/23 06:04:26;;;;;;;3.17;2.83;;;;;;;11.30;85.87;99996.41;6199252;28;20225;-73
2023/03/23 06:08:00;;;;;;;4.50;3.40;;;;;;;11.29;85.86;99984.25;6188520;28;20619;-74
2023/03/23 06:11:21;;;;;;;2.80;2.60;;;;;;;11.30;85.92;99986.66;6184858;28;20244;-72
2023/03/23 06:15:03;;;;;;;3.53;2.63;;;;;;;11.51;84.74;99969.94;6199566;28;20320;-72
2023/03/23 06:18:46;;;;;;;2.73;2.53;;;;;;;11.40;84.57;99967.03;6197690;28;20225;-73
2023/03/23 06:22:29;;;;;;;4.77;2.73;;;;;;;11.32;85.30;99973.25;6203158;28;20256;-72
2023/03/23 06:26:05;;;;;;;5.63;3.57;;;;;;;11.29;85.84;99974.50;6188602;28;20328;-72
2023/03/23 06:29:27;;;;;;;3.33;3.13;;;;;;;11.26;85.79;99980.16;6184527;28;20245;-71
2023/03/23 06:32:50;;;;;;;3.30;3.07;;;;;;;11.27;85.97;99996.84;6198053;28;20229;-70
2023/03/23 06:36:18;;;;;;;3.47;3.07;;;;;;;11.26;86.06;99984.63;6182901;28;20236;-69
2023/03/23 06:39:45;;;;;;;2.67;2.43;;;;;;;11.27;85.84;99987.09;6210196;28;20225;-69
2023/03/23 06:43:29;;;;;;;2.30;2.10;;;;;;;11.32;85.70;99991.75;6182328;28;20252;-74
2023/03/23 06:47:07;;;;;;;2.57;2.37;;;;;;;11.37;85.42;99991.19;6200095;28;20237;-73
2023/03/23 06:50:31;;;;;;;2.40;2.20;;;;;;;11.44;84.92;99992.88;6182609;28;20232;-72
2023/03/23 06:53:55;;;;;;;3.10;2.40;;;;;;;11.49;84.61;99993.09;6185314;28;20229;-72
2023/03/23 06:57:16;;;;;;;2.20;1.90;;;;;;;11.54;83.79;99981.91;6199092;28;20247;-69
2023/03/23 07:00:40;;;;;;;2.43;2.23;;;;;;;11.64;83.58;99988.50;6177689;28;20256;-69
2023/03/23 07:04:05;;;;;;;2.20;2.00;;;;;;;11.76;81.98;99994.06;6201286;28;20233;-71
2023/03/23 07:07:36;;;;;;;2.63;2.43;;;;;;;11.84;81.80;99979.84;6198280;28;20236;-73
2023/03/23 07:11:15;;;;;;;2.60;2.50;;;;;;;11.86;81.55;99989.22;6204676;28;20240;-69
2023/03/23 07:14:36;;;;;;;6.73;2.13;;;;;;;11.95;80.62;99964.25;6206842;28;20308;-72
2023/03/23 07:17:58;;;;;;;2.03;1.90;;;;;;;12.04;80.10;99986.03;6204841;28;20280;-70
2023/03/23 07:21:26;;;;;;;2.57;2.37;;;;;;;12.10;78.99;99990.53;6179378;28;20550;-72
2023/03/23 07:24:47;;;;;;;1.90;1.70;;;;;;;12.13;78.95;99990.13;6189562;28;21888;-74
2023/03/23 07:28:15;;;;;;;1.83;1.73;;;;;;;12.12;78.95;99991.16;6181440;28;20237;-73
2023/03/23 07:31:37;;;;;;;2.20;1.57;;;;;;;12.21;78.54;99989.94;6174683;28;20312;-74
2023/03/23 07:34:58;;;;;;;6.13;2.77;;;;;;;12.30;78.73;100009.09;6191498;28;20233;-72
2023/03/23 07:38:45;;;;;;;3.17;2.87;;;;;;;12.53;77.23;99998.16;6198580;28;20232;-69
2023/03/23 07:42:08;;;;;;;2.60;1.47;;;;;;;12.52;77.53;100002.63;6179700;28;20236;-70
2023/03/23 07:45:38;;;;;;;2.70;2.07;;;;;;;12.50;77.07;100004.66;6183884;28;20237;-71
2023/03/23 07:48:59;;;;;;;2.17;1.73;;;;;;;12.51;77.57;100024.00;6170135;28;20353;-70
2023/03/23 07:52:28;;;;;;;3.57;2.03;;;;;;;12.43;78.06;100005.66;6198901;28;20228;-73
2023/03/23 07:55:49;;;;;;;1.63;1.53;;;;;;;12.42;79.05;100001.41;6174916;28;20586;-72
2023/03/23 07:59:46;;;;;;;2.23;2.07;;;;;;;12.37;79.16;100007.28;6181663;28;20221;-72
2023/03/23 08:03:08;;;;;;;2.30;2.10;;;;;;;12.35;79.12;100013.81;6173271;28;20553;-75
2023/03/23 08:07:08;;;;;;;2.30;1.87;;;;;;;12.39;79.62;100012.38;6193219;28;20250;-71
2023/03/23 08:10:39;;;;;;;2.43;2.23;;;;;;;12.26;80.52;100027.19;6197374;28;20238;-69
2023/03/23 08:14:27;;;;;;;2.23;2.03;;;;;;;12.26;80.82;100029.03;6173081;28;20264;-73
2023/03/23 08:18:15;;;;;;;2.87;2.67;;;;;;;12.18;82.03;100029.22;6158819;28;20702;-72
2023/03/23 08:21:55;;;;;;;2.33;1.93;;;;;;;12.28;80.96;100027.00;6181321;28;21653;-72
2023/03/23 08:25:25;;;;;;;2.20;2.10;;;;;;;12.27;80.91;100035.97;6204636;28;20802;-75
2023/03/23 08:29:14;;;;;;;3.53;1.97;;;;;;;12.09;82.53;100060.31;6195936;28;20237;-73
2023/03/23 08:32:47;;;;;;;9.83;2.17;;;;;;;11.70;85.32;100058.28;6186184;28;20229;-77
2023/03/23 08:36:24;;;;;;;4.10;2.90;;;;;;;11.43;88.32;100083.72;6201207;28;20232;-73
2023/03/23 08:39:57;;;;;;;2.30;1.90;;;;;;;11.14;87.96;100058.28;6215022;28;20769;-73
2023/03/23 08:43:31;;;;;;;1.40;1.30;;;;;;;11.03;86.38;100021.84;6213281;28;20266;-73
2023/03/23 08:47:11;;;;;;;1.13;1.10;;;;;;;11.21;83.48;100047.78;6199542;28;20634;-71
2023/03/23 08:50:55;;;;;;;1.00;1.00;;;;;;;11.48;82.67;100054.06;6201755;28;20221;-70
2023/03/23 08:54:18;;;;;;;1.27;1.27;;;;;;;11.71;83.70;100067.84;6215705;28;20237;-71
2023/03/23 08:58:03;;;;;;;3.83;1.90;;;;;;;11.98;84.53;100072.25;6191894;28;20237;-70
2023/03/23 09:01:51;;;;;;;2.20;1.97;;;;;;;12.20;82.19;100061.59;6179523;28;20296;-74
2023/03/23 09:05:29;;;;;;;4.77;2.30;;;;;;;12.22;80.94;100065.66;6192992;28;20241;-73
2023/03/23 09:08:58;;;;;;;3.77;1.67;;;;;;;12.45;80.28;100060.03;6182846;28;20237;-78
2023/03/23 09:12:21;;;;;;;2.90;1.93;;;;;;;12.75;79.41;100062.34;6195953;28;20225;-76
2023/03/23 09:15:42;;;;;;;1.87;1.63;;;;;;;12.42;77.18;100075.50;6177596;28;20232;-74
2023/03/23 09:19:03;;;;;;;2.57;1.40;;;;;;;12.25;77.57;100075.84;6216034;28;20237;-73
2023/03/23 09:22:24;;;;;;;2.00;1.90;;;;;;;12.20;76.25;100078.25;6190268;28;20483;-73
2023/03/23 09:25:45;;;;;;;2.43;1.97;;;;;;;12.18;75.64;100082.16;6189338;28;20230;-72
2023/03/23 09:29:08;;;;;;;4.83;1.23;;;;;;;12.22;74.20;100088.66;6212590;28;20749;-71
2023/03/23 09:32:29;;;;;;;3.17;2.00;;;;;;;12.28;75.55;100088.69;6206307;28;20240;-69
2023/03/23 09:35:50;;;;;;;3.90;2.70;;;;;;;12.06;73.68;100081.06;6192527;28;20229;-71
2023/03/23 09:39:11;;;;;;;3.00;1.63;;;;;;;12.06;74.45;100081.88;6224865;28;20233;-73
2023/03/23 09:42:42;;;;;;;3.63;2.70;;;;;;;12.16;74.69;100110.63;6192880;28;20244;-73
2023/03/23 09:46:18;;;;;;;1.60;1.13;;;;;;;12.26;74.23;100103.13;6191607;28;20248;-72
2023/03/23 09:49:43;;;;;;;10.53;2.50;;;;;;;12.30;73.93;100107.81;6199622;28;20265;-74
2023/03/23 09:53:11;;;;;;;2.10;1.73;;;;;;;12.51;72.70;100114.81;6188703;28;20244;-74
2023/03/23 09:56:34;;;;;;;3.60;1.03;;;;;;;12.64;71.56;100125.47;6187966;28;20244;-75
2023/03/23 10:00:04;;;;;;;2.00;1.40;;;;;;;12.70;70.68;100102.66;6197428;28;20233;-74
2023/03/23 10:03:40;;;;;;;2.33;1.00;;;;;;;13.01;68.63;100137.34;6183050;28;20323;-76
2023/03/23 10:07:10;;;;;;;3.03;2.63;;;;;;;13.00;68.94;100119.81;6195863;28;20243;-75
2023/03/23 10:10:39;;;;;;;3.70;1.57;;;;;;;12.84;68.20;100141.41;6219766;28;20224;-75
2023/03/23 10:14:15;;;;;;;6.07;1.50;;;;;;;12.66;69.04;100127.88;6204767;28;20760;-74
2023/03/23 10:17:42;;;;;;;3.00;2.30;;;;;;;12.70;68.74;100141.56;6190933;28;20257;-75
2023/03/23 10:21:06;;;;;;;7.47;1.97;;;;;;;13.17;67.09;100133.53;6197179;28;20236;-76
2023/03/23 10:24:35;;;;;;;6.53;1.50;;;;;;;13.96;64.21;100133.47;6215418;28;20232;-76
2023/03/23 10:28:01;;;;;;;4.63;1.93;;;;;;;13.67;64.56;100139.25;6211186;28;20306;-77
2023/03/23 10:31:25;;;;;;;2.83;1.73;;;;;;;13.73;64.69;100143.72;6196159;28;20232;-75
2023/03/23 10:34:51;;;;;;;2.97;1.97;;;;;;;13.13;66.81;100129.63;6208528;28;20233;-74
2023/03/23 10:38:18;;;;;;;3.83;2.40;;;;;;;13.09;66.99;100125.75;6199245;28;20237;-75
2023/03/23 10:41:39;;;;;;;4.67;2.03;;;;;;;13.11;66.54;100134.28;6193342;28;20233;-74
2023/03/23 10:45:10;;;;;;;2.10;1.30;;;;;;;13.31;65.76;100150.28;6202974;28;20650;-76
2023/03/23 10:48:33;;;;;;;1.87;1.33;;;;;;;13.07;67.04;100156.13;6192910;28;20232;-75
2023/03/23 10:52:17;;;;;;;2.67;1.97;;;;;;;12.95;67.21;100171.78;6188074;28;20229;-75
2023/03/23 10:55:43;;;;;;;2.57;1.40;;;;;;;13.16;66.78;100169.00;6195516;28;20233;-73
2023/03/23 10:59:15;;;;;;;1.83;1.50;;;;;;;13.12;65.36;100159.78;6203918;28;20233;-74
2023/03/23 11:02:40;;;;;;;2.83;2.47;;;;;;;13.40;64.98;100164.13;6204281;28;20240;-74
2023/03/23 11:06:04;;;;;;;6.60;2.33;;;;;;;13.17;63.39;100167.97;6195270;28;20240;-74
2023/03/23 11:09:36;;;;;;;4.87;2.33;;;;;;;13.24;64.58;100171.47;6214827;28;20320;-74
2023/03/23 11:13:00;;;;;;;5.70;2.60;;;;;;;13.27;65.94;100176.38;6212510;28;20224;-75
2023/03/23 11:16:26;;;;;;;3.03;2.10;;;;;;;13.20;67.14;100182.66;6202399;28;20505;-76
2023/03/23 11:19:47;;;;;;;3.63;1.87;;;;;;;13.19;67.92;100173.06;6214255;28;20658;-74
2023/03/23 11:23:18;;;;;;;3.37;2.13;;;;;;;12.98;68.93;100190.75;6214833;28;20233;-74
2023/03/23 11:26:39;;;;;;;5.40;1.70;;;;;;;12.84;69.58;100180.31;6215894;28;20227;-75
2023/03/23 11:30:09;;;;;;;3.63;2.70;;;;;;;12.91;69.35;100181.13;6210722;28;20237;-75
2023/03/23 11:33:36;;;;;;;2.57;2.03;;;;;;;13.15;68.05;100183.25;6184227;28;20267;-75
2023/03/23 11:37:02;;;;;;;7.83;2.20;;;;;;;13.54;64.40;100181.69;6180584;28;20264;-74
2023/03/23 11:40:25;;;;;;;3.40;2.03;;;;;;;13.52;64.15;100189.84;6185197;28;20237;-74
2023/03/23 11:43:48;;;;;;;4.87;2.27;;;;;;;13.23;66.90;100224.66;6194011;28;20261;-71
2023/03/23 11:47:22;;;;;;;3.47;2.23;;;;;;;13.24;67.67;100190.00;6179954;28;20221;-74
2023/03/23 11:50:51;;;;;;;3.70;1.77;;;;;;;13.93;65.75;100189.63;6196164;28;20226;-76
2023/03/23 11:54:17;;;;;;;3.23;2.33;;;;;;;13.56;66.88;100177.78;6172180;28;20501;-76
2023/03/23 11:57:38;;;;;;;6.57;2.40;;;;;;;13.20;68.09;100202.03;6194090;28;20507;-76
2023/03/23 12:01:05;;;;;;;3.97;2.20;;;;;;;13.00;69.02;100212.56;6189207;28;20250;-74
2023/03/23 12:04:54;;;;;;;5.30;2.57;;;;;;;12.94;68.77;100223.94;6200440;28;20312;-74
2023/03/23 12:08:39;;;;;;;4.77;2.33;;;;;;;12.93;68.16;100219.66;6184325;28;20233;-74
2023/03/23 12:12:10;;;;;;;2.17;1.97;;;;;;;12.83;68.50;100199.88;6206916;28;20244;-75
2023/03/23 12:15:39;;;;;;;2.83;2.20;;;;;;;12.95;68.76;100204.38;6210347;28;20598;-72
2023/03/23 12:19:08;;;;;;;5.37;2.93;;;;;;;12.80;71.08;100216.16;6203426;28;20244;-77
2023/03/23 12:22:43;;;;;;;2.47;2.30;;;;;;;12.70;71.20;100226.28;6209965;28;20231;-74
2023/03/23 12:26:27;;;;;;;6.93;2.13;;;;;;;12.62;71.24;100214.06;6199893;28;20260;-73
2023/03/23 12:29:59;;;;;;;4.07;2.53;;;;;;;12.48;71.56;100215.81;6204546;28;20240;-78
2023/03/23 12:33:29;;;;;;;7.47;2.07;;;;;;;12.50;72.27;100208.47;6192463;28;20229;-73
2023/03/23 12:37:02;;;;;;;5.10;2.93;;;;;;;12.55;72.51;100199.97;6209239;28;20259;-74
2023/03/23 12:40:48;;;;;;;2.37;1.60;;;;;;;12.56;72.21;100217.47;6208885;28;20233;-73
2023/03/23 12:44:13;;;;;;;3.90;2.73;;;;;;;12.90;72.03;100206.81;6197086;28;20217;-73
2023/03/23 12:47:41;;;;;;;4.77;2.63;;;;;;;12.90;72.48;100206.00;6201000;28;20230;-72
2023/03/23 12:51:10;;;;;;;2.10;1.73;;;;;;;12.88;72.57;100205.38;6199508;28;20228;-71
2023/03/23 12:54:36;;;;;;;6.53;1.97;;;;;;;13.25;70.98;100194.28;6210037;28;20233;-73
2023/03/23 12:58:04;;;;;;;4.40;2.67;;;;;;;12.93;72.60;100206.41;6194185;28;20230;-75
2023/03/23 13:01:30;;;;;;;3.33;2.43;;;;;;;12.89;71.76;100188.47;6193209;28;20225;-72
2023/03/23 13:04:57;;;;;;;3.00;2.80;;;;;;;16.30;60.89;100178.56;6203264;28;20538;-74
2023/03/23 13:08:21;;;;;;;5.73;3.03;;;;;;;18.41;51.27;100173.50;6208823;28;20316;-72
2023/03/23 13:11:43;;;;;;;3.40;1.80;;;;;;;17.18;55.17;100176.22;6204835;28;20659;-74
2023/03/23 13:15:17;;;;;;;5.20;3.10;;;;;;;16.97;53.37;100179.41;6210523;28;22415;-78
2023/03/23 13:18:46;;;;;;;2.03;1.83;;;;;;;14.96;60.48;100181.72;6213159;28;20236;-73
2023/03/23 13:22:11;;;;;;;3.70;1.30;;;;;;;17.24;54.39;100169.97;6207054;28;20224;-73
2023/03/23 13:25:48;;;;;;;2.83;2.40;;;;;;;14.91;58.61;100178.91;6202925;28;20229;-73
2023/03/23 13:29:14;;;;;;;1.77;1.67;;;;;;;14.52;60.99;100171.91;6195672;28;20224;-75
2023/03/23 13:32:38;;;;;;;1.80;1.30;;;;;;;15.96;54.88;100164.00;6191855;28;20237;-71
2023/03/23 13:36:06;;;;;;;2.73;2.07;;;;;;;16.21;53.67;100163.94;6183089;28;20242;-77
2023/03/23 13:39:30;;;;;;;3.22;2.20;;;;;;;16.19;54.54;100163.34;6200751;28;20236;-73
2023/03/23 13:42:53;;;;;;;2.63;1.70;;;;;;;14.34;61.28;100153.97;6209169;28;20241;-73
2023/03/23 13:46:26;;;;;;;4.53;1.47;;;;;;;14.09;62.61;100164.47;6197006;28;20256;-76
2023/03/23 13:49:51;;;;;;;2.03;1.90;;;;;;;15.43;58.09;100158.28;6211714;28;20225;-73
2023/03/23 13:53:24;;;;;;;1.40;1.30;;;;;;;14.88;58.60;100174.00;6216425;28;21091;-76
2023/03/23 13:56:55;;;;;;;1.23;1.13;;;;;;;13.69;60.99;100174.31;6195595;28;20599;-70
2023/03/23 14:00:47;;;;;;;1.53;1.43;;;;;;;13.75;61.66;100147.00;6203054;28;20771;-80
2023/03/23 14:04:14;;;;;;;2.23;1.30;;;;;;;13.59;62.85;100168.59;6176423;28;20535;-75
2023/03/23 14:07:54;;;;;;;2.90;1.93;;;;;;;13.39;64.22;100204.91;6207689;28;20229;-72
2023/03/23 14:11:20;;;;;;;5.23;1.33;;;;;;;13.09;63.86;100229.09;6199400;28;20686;-73
2023/03/23 14:14:43;;;;;;;0.80;0.60;;;;;;;12.35;64.66;100244.03;6212508;28;20229;-74
2023/03/23 14:18:05;;;;;;;1.80;1.27;;;;;;;12.12;68.72;100268.09;6187961;28;20241;-73
2023/03/23 14:21:33;;;;;;;1.30;0.80;;;;;;;12.42;69.89;100232.50;6200089;28;20221;-75
2023/03/23 14:25:01;;;;;;;2.10;1.90;;;;;;;11.99;71.74;100200.03;6190386;28;20228;-73
2023/03/23 14:28:22;;;;;;;1.00;0.90;;;;;;;11.49;72.38;100190.50;6204597;28;20519;-76
2023/03/23 14:31:45;;;;;;;2.17;0.70;;;;;;;11.45;72.38;100186.59;6182124;28;20237;-75
2023/03/23 14:35:09;;;;;;;0.77;0.60;;;;;;;12.84;65.06;100193.56;6188915;28;20245;-74
2023/03/23 14:38:31;;;;;;;1.13;1.03;;;;;;;14.19;59.51;100187.94;6183360;28;20885;-72
2023/03/23 14:41:56;;;;;;;0.83;0.83;;;;;;;14.01;59.38;100183.25;6182969;28;20225;-74
2023/03/23 14:45:20;;;;;;;1.53;1.47;;;;;;;14.14;59.87;100188.56;6195617;28;20405;-74
2023/03/23 14:48:41;;;;;;;3.30;1.57;;;;;;;14.19;58.00;100199.38;6173418;28;21056;-74
2023/03/23 14:52:09;;;;;;;2.70;1.03;;;;;;;14.06;57.57;100195.91;6193152;28;20260;-75
2023/03/23 14:55:31;;;;;;;3.87;1.07;;;;;;;14.14;58.21;100207.13;6192981;28;20260;-76
2023/03/23 14:58:54;;;;;;;2.97;2.57;;;;;;;14.24;57.60;100202.19;6191306;28;20228;-73
2023/03/23 15:02:22;;;;;;;1.33;1.07;;;;;;;14.32;57.46;100206.47;6178270;28;20254;-72
2023/03/23 15:05:46;;;;;;;2.73;1.50;;;;;;;14.08;58.27;100207.13;6202337;28;20240;-73
2023/03/23 15:09:12;;;;;;;5.00;1.80;;;;;;;13.60;59.48;100223.28;6194207;28;20233;-71
2023/03/23 15:12:35;;;;;;;3.40;1.43;;;;;;;13.53;59.98;100220.63;6201154;28;20338;-73
2023/03/23 15:16:07;;;;;;;2.23;2.13;;;;;;;13.34;61.40;100221.41;6181419;28;20812;-73
2023/03/23 15:19:34;;;;;;;1.63;1.27;;;;;;;13.27;61.81;100239.97;6174225;28;20229;-74
2023/03/23 15:22:56;;;;;;;1.30;1.00;;;;;;;12.96;63.11;100247.59;6201775;28;20228;-72
2023/03/23 15:26:25;;;;;;;2.63;1.27;;;;;;;12.97;63.83;100244.75;6193264;28;20613;-72
2023/03/23 15:29:51;;;;;;;2.97;1.57;;;;;;;12.76;64.83;100254.63;6200762;28;20240;-73
2023/03/23 15:33:14;;;;;;;2.17;1.70;;;;;;;12.72;66.00;100248.09;6179401;28;22094;-73
2023/03/23 15:36:35;;;;;;;2.13;1.63;;;;;;;12.60;66.41;100253.16;6175285;28;20717;-73
2023/03/23 15:39:58;;;;;;;1.40;1.27;;;;;;;12.96;65.73;100243.09;6182034;28;20260;-75
2023/03/23 15:43:23;;;;;;;4.67;1.37;;;;;;;13.73;63.11;100249.81;6190053;28;20240;-75
2023/03/23 15:46:52;;;;;;;2.07;1.40;;;;;;;13.71;63.22;100251.03;6196939;28;20228;-72
2023/03/23 15:50:17;;;;;;;2.73;1.67;;;;;;;13.85;64.40;100240.22;6202487;28;20228;-71
2023/03/23 15:53:38;;;;;;;1.57;1.47;;;;;;;13.50;63.12;100238.78;6175149;28;20548;-71
2023/03/23 15:57:00;;;;;;;2.70;1.20;;;;;;;13.09;64.28;100241.53;6198326;28;20662;-71
2023/03/23 16:00:23;;;;;;;1.17;1.07;;;;;;;13.15;63.63;100259.25;6202051;28;20683;-70
2023/03/23 16:03:48;;;;;;;3.63;1.37;;;;;;;12.99;62.96;100260.44;6194694;28;20233;-70
2023/03/23 16:07:12;;;;;;;3.03;1.60;;;;;;;12.56;63.13;100262.47;6200272;28;20224;-72